OLBA/BEY METAR and TAF weather

Enter ICAO airport designator
Station Type Date Time Source
OLBA METAR 2021/03/08 03:00 UTC NOAA

OLBA 080300Z 16005KT 9999 SCT036 15/09 Q1017 NOSIG


Station Type Date Time Source
OLBA Decoded METAR 2021/03/08 03:00 UTC NOAA

Beyrouth Aeroport , Lebanon (OLBA) 33-49N 035-29E 19M
Mar 07, 2021 - 10:00 PM EST / 2021.03.08 0300 UTC
Wind: from the SSE (160 degrees) at 6 MPH (5 KT):0
Visibility: greater than 7 mile(s):0
Sky conditions: partly cloudy
Temperature: 59 F (15 C)
Dew Point: 48 F (9 C)
Relative Humidity: 67%
Pressure (altimeter): 30.03 in. Hg (1017 hPa)
ob: OLBA 080300Z 16005KT 9999 SCT036 15/09 Q1017 NOSIG
cycle: 3

Station Type Date Time Source
OLBA TAF 2021/03/07 18:00 UTC NOAA

TAF OLBA 071600Z 0718/0824 29006KT 8000 SCT027
BECMG 0718/0720 14004KT
TEMPO 0718/0808 5000 BR
BECMG 0806/0808 22015KT
BECMG 0812/0714 9999 NSC
BECMG 0818/0820 14004KT CAVOK

Example: see airport list